sensor_id;sensor_type;location;lat;lon;timestamp;pressure;altitude;pressure_sealevel;temperature;humidity
4836;BME280;66719;51.226;6.902;2024-02-26T00:00:29;99053.75;;;7.42;100.00
4836;BME280;66719;51.226;6.902;2024-02-26T00:02:56;99051.25;;;7.39;100.00
4836;BME280;66719;51.226;6.902;2024-02-26T00:05:23;99050.53;;;7.34;100.00
4836;BME280;66719;51.226;6.902;2024-02-26T00:07:49;99044.63;;;7.29;100.00
4836;BME280;66719;51.226;6.902;2024-02-26T00:10:16;99039.38;;;7.30;100.00
4836;BME280;66719;51.226;6.902;2024-02-26T00:12:43;99052.03;;;7.41;100.00
4836;BME280;66719;51.226;6.902;2024-02-26T00:15:10;99070.16;;;7.44;100.00
4836;BME280;66719;51.226;6.902;2024-02-26T00:17:37;99075.97;;;7.52;100.00
4836;BME280;66719;51.226;6.902;2024-02-26T00:20:05;99069.91;;;7.52;100.00
4836;BME280;66719;51.226;6.902;2024-02-26T00:22:35;99063.13;;;7.48;100.00
4836;BME280;66719;51.226;6.902;2024-02-26T00:25:02;99064.94;;;7.44;100.00
4836;BME280;66719;51.226;6.902;2024-02-26T00:27:29;99052.09;;;7.40;100.00
4836;BME280;66719;51.226;6.902;2024-02-26T00:29:55;99051.31;;;7.36;100.00
4836;BME280;66719;51.226;6.902;2024-02-26T00:32:22;99058.34;;;7.34;100.00
4836;BME280;66719;51.226;6.902;2024-02-26T00:34:49;99049.75;;;7.32;100.00
4836;BME280;66719;51.226;6.902;2024-02-26T00:37:17;99055.75;;;7.34;100.00
4836;BME280;66719;51.226;6.902;2024-02-26T00:39:43;99052.34;;;7.32;100.00
4836;BME280;66719;51.226;6.902;2024-02-26T00:42:11;99055.88;;;7.29;100.00
4836;BME280;66719;51.226;6.902;2024-02-26T00:44:37;99059.50;;;7.25;100.00
4836;BME280;66719;51.226;6.902;2024-02-26T00:47:04;99058.69;;;7.23;100.00
4836;BME280;66719;51.226;6.902;2024-02-26T00:49:31;99056.22;;;7.19;100.00
4836;BME280;66719;51.226;6.902;2024-02-26T00:51:58;99063.34;;;7.14;100.00
4836;BME280;66719;51.226;6.902;2024-02-26T00:54:25;99060.94;;;7.07;100.00
4836;BME280;66719;51.226;6.902;2024-02-26T00:56:51;99055.63;;;7.11;100.00
4836;BME280;66719;51.226;6.902;2024-02-26T00:59:18;99059.13;;;7.09;100.00
4836;BME280;66719;51.226;6.902;2024-02-26T01:01:44;99063.59;;;7.06;100.00
4836;BME280;66719;51.226;6.902;2024-02-26T01:04:11;99061.06;;;7.03;100.00
4836;BME280;66719;51.226;6.902;2024-02-26T01:06:38;99061.91;;;7.03;100.00
4836;BME280;66719;51.226;6.902;2024-02-26T01:09:05;99054.09;;;7.03;100.00
4836;BME280;66719;51.226;6.902;2024-02-26T01:11:32;99054.09;;;7.03;100.00
4836;BME280;66719;51.226;6.902;2024-02-26T01:13:59;99061.13;;;7.01;100.00
4836;BME280;66719;51.226;6.902;2024-02-26T01:16:25;99072.44;;;7.00;100.00
4836;BME280;66719;51.226;6.902;2024-02-26T01:18:55;99075.03;;;7.00;100.00
4836;BME280;66719;51.226;6.902;2024-02-26T01:21:21;99063.03;;;6.96;100.00
4836;BME280;66719;51.226;6.902;2024-02-26T01:23:48;99060.38;;;6.98;100.00
4836;BME280;66719;51.226;6.902;2024-02-26T01:26:15;99059.53;;;6.97;100.00
4836;BME280;66719;51.226;6.902;2024-02-26T01:28:41;99063.72;;;7.01;100.00
4836;BME280;66719;51.226;6.902;2024-02-26T01:31:09;99060.31;;;6.99;100.00
4836;BME280;66719;51.226;6.902;2024-02-26T01:33:36;99058.72;;;6.95;100.00
4836;BME280;66719;51.226;6.902;2024-02-26T01:36:03;99063.94;;;6.95;100.00
4836;BME280;66719;51.226;6.902;2024-02-26T01:38:31;99056.97;;;6.96;100.00
4836;BME280;66719;51.226;6.902;2024-02-26T01:40:58;99057.03;;;6.93;100.00
4836;BME280;66719;51.226;6.902;2024-02-26T01:43:25;99056.13;;;6.95;100.00
4836;BME280;66719;51.226;6.902;2024-02-26T01:45:51;99061.28;;;6.97;100.00
4836;BME280;66719;51.226;6.902;2024-02-26T01:48:18;99062.06;;;6.99;100.00
4836;BME280;66719;51.226;6.902;2024-02-26T01:50:45;99058.75;;;6.94;100.00
4836;BME280;66719;51.226;6.902;2024-02-26T01:53:12;99062.06;;;6.99;100.00
4836;BME280;66719;51.226;6.902;2024-02-26T01:55:39;99056.03;;;6.98;100.00
4836;BME280;66719;51.226;6.902;2024-02-26T01:58:06;99061.22;;;6.98;100.00
4836;BME280;66719;51.226;6.902;2024-02-26T02:00:33;99059.66;;;6.93;100.00
4836;BME280;66719;51.226;6.902;2024-02-26T02:03:02;99055.41;;;6.90;100.00
4836;BME280;66719;51.226;6.902;2024-02-26T02:05:30;99061.59;;;6.86;100.00
4836;BME280;66719;51.226;6.902;2024-02-26T02:07:57;99063.38;;;6.84;100.00
4836;BME280;66719;51.226;6.902;2024-02-26T02:10:25;99054.72;;;6.84;100.00
4836;BME280;66719;51.226;6.902;2024-02-26T02:12:52;99058.41;;;6.78;100.00
4836;BME280;66719;51.226;6.902;2024-02-26T02:15:19;99066.03;;;6.83;100.00
4836;BME280;66719;51.226;6.902;2024-02-26T02:17:47;99058.41;;;6.78;100.00
4836;BME280;66719;51.226;6.902;2024-02-26T02:20:17;99057.63;;;6.74;100.00
4836;BME280;66719;51.226;6.902;2024-02-26T02:22:45;99056.03;;;6.69;100.00
4836;BME280;66719;51.226;6.902;2024-02-26T02:25:13;99056.28;;;6.61;100.00
4836;BME280;66719;51.226;6.902;2024-02-26T02:27:40;99053.50;;;6.67;100.00
4836;BME280;66719;51.226;6.902;2024-02-26T02:30:09;99053.53;;;6.66;100.00
4836;BME280;66719;51.226;6.902;2024-02-26T02:32:39;99045.75;;;6.66;100.00
4836;BME280;66719;51.226;6.902;2024-02-26T02:35:10;99050.53;;;6.51;100.00
4836;BME280;66719;51.226;6.902;2024-02-26T02:37:37;99046.53;;;6.68;100.00
4836;BME280;66719;51.226;6.902;2024-02-26T02:40:04;99038.03;;;6.63;100.00
4836;BME280;66719;51.226;6.902;2024-02-26T02:42:31;99046.91;;;6.56;100.00
4836;BME280;66719;51.226;6.902;2024-02-26T02:44:58;99040.03;;;6.55;100.00
4836;BME280;66719;51.226;6.902;2024-02-26T02:47:24;99042.44;;;6.61;100.00
4836;BME280;66719;51.226;6.902;2024-02-26T02:49:51;99039.25;;;6.51;100.00
4836;BME280;66719;51.226;6.902;2024-02-26T02:52:18;99039.66;;;6.37;100.00
4836;BME280;66719;51.226;6.902;2024-02-26T02:54:44;99038.88;;;6.35;100.00
4836;BME280;66719;51.226;6.902;2024-02-26T02:57:13;99038.97;;;6.31;100.00
4836;BME280;66719;51.226;6.902;2024-02-26T02:59:40;99033.28;;;6.47;100.00
4836;BME280;66719;51.226;6.902;2024-02-26T03:02:06;99042.00;;;6.46;100.00
4836;BME280;66719;51.226;6.902;2024-02-26T03:04:33;99031.69;;;6.43;100.00
4836;BME280;66719;51.226;6.902;2024-02-26T03:07:00;99036.91;;;6.43;100.00
4836;BME280;66719;51.226;6.902;2024-02-26T03:09:27;99042.09;;;6.43;100.00
4836;BME280;66719;51.226;6.902;2024-02-26T03:11:54;99042.94;;;6.44;100.00
4836;BME280;66719;51.226;6.902;2024-02-26T03:14:20;99035.94;;;6.46;100.00
4836;BME280;66719;51.226;6.902;2024-02-26T03:16:47;99044.75;;;6.40;100.00
4836;BME280;66719;51.226;6.902;2024-02-26T03:19:16;99039.63;;;6.39;100.00
4836;BME280;66719;51.226;6.902;2024-02-26T03:21:44;99034.50;;;6.36;100.00
4836;BME280;66719;51.226;6.902;2024-02-26T03:24:10;99031.13;;;6.32;100.00
4836;BME280;66719;51.226;6.902;2024-02-26T03:26:38;99025.13;;;6.30;100.00
4836;BME280;66719;51.226;6.902;2024-02-26T03:29:05;99028.63;;;6.29;100.00
4836;BME280;66719;51.226;6.902;2024-02-26T03:31:32;99028.63;;;6.29;100.00
4836;BME280;66719;51.226;6.902;2024-02-26T03:33:58;99024.47;;;6.23;100.00
4836;BME280;66719;51.226;6.902;2024-02-26T03:36:25;99023.44;;;6.29;100.00
4836;BME280;66719;51.226;6.902;2024-02-26T03:38:53;99025.31;;;6.24;100.00
4836;BME280;66719;51.226;6.902;2024-02-26T03:41:20;99037.41;;;6.25;100.00
4836;BME280;66719;51.226;6.902;2024-02-26T03:43:46;99036.38;;;6.31;100.00
4836;BME280;66719;51.226;6.902;2024-02-26T03:46:13;99026.00;;;6.31;100.00
4836;BME280;66719;51.226;6.902;2024-02-26T03:48:41;99029.44;;;6.31;100.00
4836;BME280;66719;51.226;6.902;2024-02-26T03:51:08;99023.16;;;6.38;100.00
4836;BME280;66719;51.226;6.902;2024-02-26T03:53:37;99026.78;;;6.34;100.00
4836;BME280;66719;51.226;6.902;2024-02-26T03:56:05;99030.22;;;6.35;100.00
4836;BME280;66719;51.226;6.902;2024-02-26T03:58:32;99027.31;;;6.45;100.00
4836;BME280;66719;51.226;6.902;2024-02-26T04:00:59;99038.88;;;6.35;100.00
4836;BME280;66719;51.226;6.902;2024-02-26T04:03:26;99038.03;;;6.33;100.00
4836;BME280;66719;51.226;6.902;2024-02-26T04:05:53;99044.19;;;6.31;100.00
4836;BME280;66719;51.226;6.902;2024-02-26T04:08:20;99044.13;;;6.32;100.00
4836;BME280;66719;51.226;6.902;2024-02-26T04:10:46;99048.69;;;6.26;100.00
4836;BME280;66719;51.226;6.902;2024-02-26T04:13:13;99047.72;;;6.28;100.00
4836;BME280;66719;51.226;6.902;2024-02-26T04:15:40;99052.13;;;6.26;100.00
4836;BME280;66719;51.226;6.902;2024-02-26T04:18:06;99050.53;;;6.20;100.00
4836;BME280;66719;51.226;6.902;2024-02-26T04:20:33;99052.38;;;6.17;100.00
4836;BME280;66719;51.226;6.902;2024-02-26T04:23:00;99053.34;;;6.13;100.00
4836;BME280;66719;51.226;6.902;2024-02-26T04:25:26;99054.34;;;6.07;100.00
4836;BME280;66719;51.226;6.902;2024-02-26T04:27:54;99050.81;;;6.11;100.00
4836;BME280;66719;51.226;6.902;2024-02-26T04:30:21;99057.00;;;6.06;100.00
4836;BME280;66719;51.226;6.902;2024-02-26T04:32:48;99060.97;;;6.19;100.00
4836;BME280;66719;51.226;6.902;2024-02-26T04:35:14;99063.66;;;6.16;100.00
4836;BME280;66719;51.226;6.902;2024-02-26T04:37:41;99064.59;;;6.13;100.00
4836;BME280;66719;51.226;6.902;2024-02-26T04:40:08;99062.88;;;6.12;100.00
4836;BME280;66719;51.226;6.902;2024-02-26T04:42:35;99058.53;;;6.13;100.00
4836;BME280;66719;51.226;6.902;2024-02-26T04:45:01;99070.78;;;6.09;100.00
4836;BME280;66719;51.226;6.902;2024-02-26T04:47:28;99066.50;;;6.07;100.00
4836;BME280;66719;51.226;6.902;2024-02-26T04:49:56;99069.94;;;6.09;100.00
4836;BME280;66719;51.226;6.902;2024-02-26T04:52:23;99079.59;;;6.04;100.00
4836;BME280;66719;51.226;6.902;2024-02-26T04:54:49;99069.34;;;5.98;100.00
4836;BME280;66719;51.226;6.902;2024-02-26T04:57:16;99079.69;;;5.99;100.00
4836;BME280;66719;51.226;6.902;2024-02-26T04:59:45;99075.28;;;6.03;100.00
4836;BME280;66719;51.226;6.902;2024-02-26T05:02:13;99081.44;;;5.99;100.00
4836;BME280;66719;51.226;6.902;2024-02-26T05:04:39;99074.53;;;5.98;100.00
4836;BME280;66719;51.226;6.902;2024-02-26T05:07:06;99071.69;;;6.08;100.00
4836;BME280;66719;51.226;6.902;2024-02-26T05:09:33;99073.63;;;6.00;100.00
4836;BME280;66719;51.226;6.902;2024-02-26T05:12:00;99070.13;;;6.01;100.00
4836;BME280;66719;51.226;6.902;2024-02-26T05:14:26;99078.81;;;6.00;100.00
4836;BME280;66719;51.226;6.902;2024-02-26T05:16:53;99082.97;;;6.06;100.00
4836;BME280;66719;51.226;6.902;2024-02-26T05:19:20;99087.94;;;6.15;100.00
4836;BME280;66719;51.226;6.902;2024-02-26T05:21:46;99087.94;;;6.15;100.00
4836;BME280;66719;51.226;6.902;2024-02-26T05:24:16;99081.03;;;6.14;100.00
4836;BME280;66719;51.226;6.902;2024-02-26T05:26:45;99090.88;;;6.03;100.00
4836;BME280;66719;51.226;6.902;2024-02-26T05:29:12;99087.31;;;6.05;100.00
4836;BME280;66719;51.226;6.902;2024-02-26T05:31:39;99086.69;;;5.97;100.00
4836;BME280;66719;51.226;6.902;2024-02-26T05:34:06;99094.13;;;6.11;100.00
4836;BME280;66719;51.226;6.902;2024-02-26T05:36:33;99104.63;;;6.06;100.00
4836;BME280;66719;51.226;6.902;2024-02-26T05:39:01;99103.72;;;6.07;100.00
4836;BME280;66719;51.226;6.902;2024-02-26T05:41:27;99092.47;;;6.08;100.00
4836;BME280;66719;51.226;6.902;2024-02-26T05:43:54;99106.28;;;6.09;100.00
4836;BME280;66719;51.226;6.902;2024-02-26T05:46:21;99099.34;;;6.09;100.00
4836;BME280;66719;51.226;6.902;2024-02-26T05:48:52;99103.00;;;6.02;100.00
4836;BME280;66719;51.226;6.902;2024-02-26T05:51:19;99105.34;;;6.11;100.00
4836;BME280;66719;51.226;6.902;2024-02-26T05:53:46;99110.34;;;6.19;100.00
4836;BME280;66719;51.226;6.902;2024-02-26T05:56:14;99116.47;;;6.16;100.00
4836;BME280;66719;51.226;6.902;2024-02-26T05:58:40;99116.34;;;6.21;100.00
4836;BME280;66719;51.226;6.902;2024-02-26T06:01:07;99115.69;;;6.13;100.00
4836;BME280;66719;51.226;6.902;2024-02-26T06:03:34;99117.56;;;6.08;100.00
4836;BME280;66719;51.226;6.902;2024-02-26T06:06:00;99110.91;;;5.98;100.00
4836;BME280;66719;51.226;6.902;2024-02-26T06:08:28;99107.25;;;6.05;100.00
4836;BME280;66719;51.226;6.902;2024-02-26T06:10:55;99120.16;;;6.08;100.00
4836;BME280;66719;51.226;6.902;2024-02-26T06:13:22;99114.97;;;6.08;100.00
4836;BME280;66719;51.226;6.902;2024-02-26T06:15:48;99120.56;;;6.25;100.00
4836;BME280;66719;51.226;6.902;2024-02-26T06:18:15;99119.03;;;6.18;100.00
4836;BME280;66719;51.226;6.902;2024-02-26T06:20:42;99124.25;;;6.18;100.00
4836;BME280;66719;51.226;6.902;2024-02-26T06:23:09;99129.84;;;6.03;100.00
4836;BME280;66719;51.226;6.902;2024-02-26T06:25:36;99133.38;;;5.99;100.00
4836;BME280;66719;51.226;6.902;2024-02-26T06:28:03;99128.03;;;6.05;100.00
4836;BME280;66719;51.226;6.902;2024-02-26T06:30:29;99134.88;;;6.07;100.00
4836;BME280;66719;51.226;6.902;2024-02-26T06:32:56;99141.94;;;6.04;100.00
4836;BME280;66719;51.226;6.902;2024-02-26T06:35:23;99152.31;;;6.04;100.00
4836;BME280;66719;51.226;6.902;2024-02-26T06:37:50;99149.53;;;6.11;100.00
4836;BME280;66719;51.226;6.902;2024-02-26T06:40:19;99155.81;;;6.03;100.00
4836;BME280;66719;51.226;6.902;2024-02-26T06:42:46;99160.91;;;6.06;100.00
4836;BME280;66719;51.226;6.902;2024-02-26T06:45:15;99164.50;;;6.02;100.00
4836;BME280;66719;51.226;6.902;2024-02-26T06:47:41;99161.00;;;6.03;100.00
4836;BME280;66719;51.226;6.902;2024-02-26T06:50:11;99161.09;;;5.98;100.00
4836;BME280;66719;51.226;6.902;2024-02-26T06:52:38;99167.06;;;6.03;100.00
4836;BME280;66719;51.226;6.902;2024-02-26T06:55:05;99172.09;;;6.08;100.00
4836;BME280;66719;51.226;6.902;2024-02-26T06:57:34;99174.03;;;6.01;100.00
4836;BME280;66719;51.226;6.902;2024-02-26T07:00:01;99172.16;;;6.06;100.00
4836;BME280;66719;51.226;6.902;2024-02-26T07:02:31;99175.66;;;6.05;100.00
4836;BME280;66719;51.226;6.902;2024-02-26T07:04:57;99180.66;;;6.13;100.00
4836;BME280;66719;51.226;6.902;2024-02-26T07:07:25;99185.81;;;6.14;100.00
4836;BME280;66719;51.226;6.902;2024-02-26T07:09:52;99187.34;;;6.21;100.00
4836;BME280;66719;51.226;6.902;2024-02-26T07:12:18;99186.66;;;6.15;100.00
4836;BME280;66719;51.226;6.902;2024-02-26T07:14:48;99189.22;;;6.16;100.00
4836;BME280;66719;51.226;6.902;2024-02-26T07:17:15;99186.03;;;6.05;100.00
4836;BME280;66719;51.226;6.902;2024-02-26T07:19:42;99191.94;;;6.12;100.00
4836;BME280;66719;51.226;6.902;2024-02-26T07:22:09;99197.22;;;6.09;100.00
4836;BME280;66719;51.226;6.902;2024-02-26T07:24:36;99198.06;;;6.09;100.00
4836;BME280;66719;51.226;6.902;2024-02-26T07:27:02;99200.88;;;6.02;100.00
4836;BME280;66719;51.226;6.902;2024-02-26T07:29:29;99199.72;;;6.12;100.00
4836;BME280;66719;51.226;6.902;2024-02-26T07:31:56;99204.78;;;6.18;100.00
4836;BME280;66719;51.226;6.902;2024-02-26T07:34:23;99201.28;;;6.19;100.00
4836;BME280;66719;51.226;6.902;2024-02-26T07:36:54;99201.47;;;6.11;100.00
4836;BME280;66719;51.226;6.902;2024-02-26T07:39:21;99204.78;;;6.16;100.00
4836;BME280;66719;51.226;6.902;2024-02-26T07:41:47;99198.66;;;6.20;100.00
4836;BME280;66719;51.226;6.902;2024-02-26T07:44:16;99213.44;;;6.18;100.00
4836;BME280;66719;51.226;6.902;2024-02-26T07:46:43;99208.06;;;6.24;100.00
4836;BME280;66719;51.226;6.902;2024-02-26T07:49:09;99211.50;;;6.27;100.00
4836;BME280;66719;51.226;6.902;2024-02-26T07:51:36;99208.03;;;6.26;100.00
4836;BME280;66719;51.226;6.902;2024-02-26T07:54:03;99215.19;;;6.16;100.00
4836;BME280;66719;51.226;6.902;2024-02-26T07:56:30;99217.78;;;6.18;100.00
4836;BME280;66719;51.226;6.902;2024-02-26T07:58:57;99217.72;;;6.19;100.00
4836;BME280;66719;51.226;6.902;2024-02-26T08:01:23;99218.66;;;6.17;100.00
4836;BME280;66719;51.226;6.902;2024-02-26T08:03:55;99226.22;;;6.26;100.00
4836;BME280;66719;51.226;6.902;2024-02-26T08:06:23;99230.13;;;6.42;100.00
4836;BME280;66719;51.226;6.902;2024-02-26T08:08:50;99235.88;;;6.21;100.00
4836;BME280;66719;51.226;6.902;2024-02-26T08:11:17;99220.38;;;6.16;100.00
4836;BME280;66719;51.226;6.902;2024-02-26T08:13:43;99235.06;;;6.19;100.00
4836;BME280;66719;51.226;6.902;2024-02-26T08:16:10;99235.84;;;6.22;100.00
4836;BME280;66719;51.226;6.902;2024-02-26T08:18:36;99243.66;;;6.21;100.00
4836;BME280;66719;51.226;6.902;2024-02-26T08:21:03;99246.84;;;6.32;100.00
4836;BME280;66719;51.226;6.902;2024-02-26T08:23:30;99249.34;;;6.37;100.00
4836;BME280;66719;51.226;6.902;2024-02-26T08:25:58;99253.63;;;6.38;100.00
4836;BME280;66719;51.226;6.902;2024-02-26T08:28:24;99249.19;;;6.43;100.00
4836;BME280;66719;51.226;6.902;2024-02-26T08:30:51;99252.41;;;6.51;100.00
4836;BME280;66719;51.226;6.902;2024-02-26T08:33:18;99246.13;;;6.60;100.00
4836;BME280;66719;51.226;6.902;2024-02-26T08:35:44;99264.06;;;6.70;100.00
4836;BME280;66719;51.226;6.902;2024-02-26T08:38:11;99263.31;;;6.65;100.00
4836;BME280;66719;51.226;6.902;2024-02-26T08:40:38;99269.22;;;6.72;100.00
4836;BME280;66719;51.226;6.902;2024-02-26T08:43:04;99267.50;;;6.71;100.00
4836;BME280;66719;51.226;6.902;2024-02-26T08:45:31;99273.44;;;6.76;100.00
4836;BME280;66719;51.226;6.902;2024-02-26T08:47:58;99274.22;;;6.79;100.00
4836;BME280;66719;51.226;6.902;2024-02-26T08:50:26;99268.28;;;6.74;100.00
4836;BME280;66719;51.226;6.902;2024-02-26T08:52:53;99274.41;;;6.72;100.00
4836;BME280;66719;51.226;6.902;2024-02-26T08:55:19;99271.97;;;6.66;100.00
4836;BME280;66719;51.226;6.902;2024-02-26T08:57:47;99284.03;;;6.68;100.00
4836;BME280;66719;51.226;6.902;2024-02-26T09:00:14;99303.03;;;6.72;100.00
4836;BME280;66719;51.226;6.902;2024-02-26T09:02:44;99290.97;;;6.68;100.00
4836;BME280;66719;51.226;6.902;2024-02-26T09:05:11;99288.50;;;6.63;100.00
4836;BME280;66719;51.226;6.902;2024-02-26T09:07:38;99295.28;;;6.69;100.00
4836;BME280;66719;51.226;6.902;2024-02-26T09:10:05;99293.56;;;6.69;100.00
4836;BME280;66719;51.226;6.902;2024-02-26T09:12:32;99293.56;;;6.68;100.00
4836;BME280;66719;51.226;6.902;2024-02-26T09:14:59;99297.13;;;6.65;100.00
4836;BME280;66719;51.226;6.902;2024-02-26T09:17:26;99288.38;;;6.68;100.00
4836;BME280;66719;51.226;6.902;2024-02-26T09:19:52;99294.38;;;6.71;100.00
4836;BME280;66719;51.226;6.902;2024-02-26T09:22:19;99300.72;;;6.61;100.00
4836;BME280;66719;51.226;6.902;2024-02-26T09:24:45;99304.16;;;6.62;100.00
4836;BME280;66719;51.226;6.902;2024-02-26T09:27:12;99309.38;;;6.60;100.00
4836;BME280;66719;51.226;6.902;2024-02-26T09:29:39;99305.06;;;6.61;100.00
4836;BME280;66719;51.226;6.902;2024-02-26T09:32:06;99311.81;;;6.66;100.00
4836;BME280;66719;51.226;6.902;2024-02-26T09:34:32;99310.06;;;6.67;100.00
4836;BME280;66719;51.226;6.902;2024-02-26T09:37:00;99313.47;;;6.69;100.00
4836;BME280;66719;51.226;6.902;2024-02-26T09:39:41;99321.22;;;6.72;100.00
4836;BME280;66719;51.226;6.902;2024-02-26T09:42:09;99327.25;;;6.74;100.00
4836;BME280;66719;51.226;6.902;2024-02-26T09:44:39;99334.22;;;6.72;100.00
4836;BME280;66719;51.226;6.902;2024-02-26T09:47:11;99336.88;;;6.69;100.00
4836;BME280;66719;51.226;6.902;2024-02-26T09:49:39;99336.03;;;6.70;100.00
4836;BME280;66719;51.226;6.902;2024-02-26T09:52:08;99334.28;;;6.69;100.00
4836;BME280;66719;51.226;6.902;2024-02-26T09:54:35;99335.31;;;6.63;100.00
4836;BME280;66719;51.226;6.902;2024-02-26T09:57:03;99346.56;;;6.64;100.00
4836;BME280;66719;51.226;6.902;2024-02-26T09:59:39;99352.81;;;6.57;100.00
4836;BME280;66719;51.226;6.902;2024-02-26T10:02:12;99353.84;;;6.49;100.00
4836;BME280;66719;51.226;6.902;2024-02-26T10:04:40;99352.09;;;6.51;100.00
4836;BME280;66719;51.226;6.902;2024-02-26T10:07:13;99362.63;;;6.45;100.00
4836;BME280;66719;51.226;6.902;2024-02-26T10:09:40;99356.41;;;6.53;100.00
4836;BME280;66719;51.226;6.902;2024-02-26T10:12:09;99365.81;;;6.57;100.00
4836;BME280;66719;51.226;6.902;2024-02-26T10:14:37;99367.41;;;6.62;100.00
4836;BME280;66719;51.226;6.902;2024-02-26T10:17:07;99366.56;;;6.62;100.00
4836;BME280;66719;51.226;6.902;2024-02-26T10:19:35;99367.41;;;6.62;100.00
4836;BME280;66719;51.226;6.902;2024-02-26T10:22:04;99374.84;;;6.76;100.00
4836;BME280;66719;51.226;6.902;2024-02-26T10:24:32;99370.63;;;6.72;100.00
4836;BME280;66719;51.226;6.902;2024-02-26T10:26:59;99381.41;;;6.57;100.00
4836;BME280;66719;51.226;6.902;2024-02-26T10:29:25;99385.00;;;6.53;100.00
4836;BME280;66719;51.226;6.902;2024-02-26T10:31:52;99383.38;;;6.47;100.00
4836;BME280;66719;51.226;6.902;2024-02-26T10:34:20;99378.19;;;6.47;100.00
4836;BME280;66719;51.226;6.902;2024-02-26T10:36:47;99383.16;;;6.56;100.00
4836;BME280;66719;51.226;6.902;2024-02-26T10:39:20;99395.31;;;6.56;100.00
4836;BME280;66719;51.226;6.902;2024-02-26T10:41:47;99388.31;;;6.58;100.00
4836;BME280;66719;51.226;6.902;2024-02-26T10:44:13;99393.25;;;6.70;100.00
4836;BME280;66719;51.226;6.902;2024-02-26T10:46:46;99392.34;;;6.71;100.00
4836;BME280;66719;51.226;6.902;2024-02-26T10:49:14;99398.16;;;6.80;100.00
4836;BME280;66719;51.226;6.902;2024-02-26T10:51:55;99397.59;;;6.68;100.00
4836;BME280;66719;51.226;6.902;2024-02-26T10:54:26;99397.53;;;6.71;100.00
4836;BME280;66719;51.226;6.902;2024-02-26T10:56:56;99403.66;;;6.70;100.00
4836;BME280;66719;51.226;6.902;2024-02-26T10:59:23;99398.34;;;6.73;100.00
4836;BME280;66719;51.226;6.902;2024-02-26T11:01:51;99413.03;;;6.75;100.00
4836;BME280;66719;51.226;6.902;2024-02-26T11:04:18;99409.50;;;6.78;100.00
4836;BME280;66719;51.226;6.902;2024-02-26T11:06:47;99412.84;;;6.83;100.00
4836;BME280;66719;51.226;6.902;2024-02-26T11:09:14;99413.03;;;6.75;100.00
4836;BME280;66719;51.226;6.902;2024-02-26T11:11:42;99414.72;;;6.78;100.00
4836;BME280;66719;51.226;6.902;2024-02-26T11:14:09;99422.47;;;6.79;100.00
4836;BME280;66719;51.226;6.902;2024-02-26T11:16:37;99422.38;;;6.83;100.00
4836;BME280;66719;51.226;6.902;2024-02-26T11:19:06;99427.31;;;6.93;100.00
4836;BME280;66719;51.226;6.902;2024-02-26T11:21:36;99420.25;;;6.98;100.00
4836;BME280;66719;51.226;6.902;2024-02-26T11:24:12;99422.72;;;7.04;100.00
4836;BME280;66719;51.226;6.902;2024-02-26T11:26:44;99426.38;;;6.97;100.00
4836;BME280;66719;51.226;6.902;2024-02-26T11:29:17;99429.63;;;7.05;100.00
4836;BME280;66719;51.226;6.902;2024-02-26T11:31:47;99433.31;;;6.97;100.00
4836;BME280;66719;51.226;6.902;2024-02-26T11:34:14;99433.38;;;6.95;100.00
4836;BME280;66719;51.226;6.902;2024-02-26T11:36:41;99434.31;;;6.91;100.00
4836;BME280;66719;51.226;6.902;2024-02-26T11:39:11;99438.72;;;6.89;100.00
4836;BME280;66719;51.226;6.902;2024-02-26T11:41:39;99435.25;;;6.89;100.00
4836;BME280;66719;51.226;6.902;2024-02-26T11:44:05;99445.69;;;6.87;100.00
4836;BME280;66719;51.226;6.902;2024-02-26T11:46:42;99438.72;;;6.89;100.00
4836;BME280;66719;51.226;6.902;2024-02-26T11:51:56;99447.22;;;6.94;100.00
4836;BME280;66719;51.226;6.902;2024-02-26T11:54:52;99456.66;;;7.00;100.00
4836;BME280;66719;51.226;6.902;2024-02-26T11:57:29;99449.66;;;7.02;100.00
4836;BME280;66719;51.226;6.902;2024-02-26T12:00:11;99449.91;;;6.91;100.00
4836;BME280;66719;51.226;6.902;2024-02-26T12:05:14;99467.13;;;6.97;100.00
4836;BME280;66719;51.226;6.902;2024-02-26T12:07:48;99451.56;;;6.95;100.00
4836;BME280;66719;51.226;6.902;2024-02-26T12:10:20;99456.88;;;6.91;100.00
4836;BME280;66719;51.226;6.902;2024-02-26T12:12:49;99461.91;;;6.98;100.00
4836;BME280;66719;51.226;6.902;2024-02-26T12:15:16;99462.88;;;6.93;100.00
4836;BME280;66719;51.226;6.902;2024-02-26T12:17:48;99469.78;;;6.95;100.00
4836;BME280;66719;51.226;6.902;2024-02-26T12:20:16;99468.09;;;6.93;100.00
4836;BME280;66719;51.226;6.902;2024-02-26T12:22:45;99473.19;;;6.97;100.00
4836;BME280;66719;51.226;6.902;2024-02-26T12:25:14;99475.84;;;6.94;100.00
4836;BME280;66719;51.226;6.902;2024-02-26T12:27:41;99468.03;;;6.96;100.00
4836;BME280;66719;51.226;6.902;2024-02-26T12:30:08;99468.00;;;6.97;100.00
4836;BME280;66719;51.226;6.902;2024-02-26T12:32:35;99474.72;;;7.06;100.00
4836;BME280;66719;51.226;6.902;2024-02-26T12:35:03;99474.59;;;7.11;100.00
4836;BME280;66719;51.226;6.902;2024-02-26T12:37:30;99479.75;;;7.14;100.00
4836;BME280;66719;51.226;6.902;2024-02-26T12:39:57;99475.31;;;7.17;100.00
4836;BME280;66719;51.226;6.902;2024-02-26T12:42:24;99487.47;;;7.17;100.00
4836;BME280;66719;51.226;6.902;2024-02-26T12:44:52;99483.69;;;7.28;100.00
4836;BME280;66719;51.226;6.902;2024-02-26T12:47:19;99489.03;;;7.24;100.00
4836;BME280;66719;51.226;6.902;2024-02-26T12:49:48;99491.25;;;7.37;100.00
4836;BME280;66719;51.226;6.902;2024-02-26T12:52:16;99499.81;;;7.43;100.00
4836;BME280;66719;51.226;6.902;2024-02-26T12:54:44;99500.09;;;7.32;100.00
4836;BME280;66719;51.226;6.902;2024-02-26T12:57:11;99495.66;;;7.35;100.00
4836;BME280;66719;51.226;6.902;2024-02-26T12:59:38;99507.06;;;7.31;100.00
4836;BME280;66719;51.226;6.902;2024-02-26T13:02:05;99509.47;;;7.39;100.00
4836;BME280;66719;51.226;6.902;2024-02-26T13:04:34;99517.94;;;7.47;100.00
4836;BME280;66719;51.226;6.902;2024-02-26T13:07:04;99516.19;;;7.48;100.00
4836;BME280;66719;51.226;6.902;2024-02-26T13:09:35;99520.25;;;7.58;100.00
4836;BME280;66719;51.226;6.902;2024-02-26T13:12:06;99530.94;;;7.80;100.00
4836;BME280;66719;51.226;6.902;2024-02-26T13:14:34;99540.28;;;7.88;100.00
4836;BME280;66719;51.226;6.902;2024-02-26T13:17:01;99537.75;;;7.85;100.00